AirNav  
 
Fuel
  

48T Bamberger Ranch Airport
Johnson City, Texas, USA


FAA INFORMATION EFFECTIVE 15 MAY 2003

Location

FAA Identifier: 48T
Lat/Long: 30-13-00.732N / 098-26-01.083W
30-13.01220N / 098-26.01805W
30.2168700 / -98.4336342
(estimated)
Elevation: 1540 ft. / 469 m (estimated)
Variation: 07E (1985)
From city: 4 miles S of JOHNSON CITY, TX

Airport Operations

Airport use: Private use. Permission required prior to landing
Sectional chart: SAN ANTONIO BUY IT NOW
Control tower: no
ARTCC: HOUSTON CENTER
FSS: SAN ANGELO FLIGHT SERVICE STATION [1-800-WX-BRIEF]
Attendance: UNATNDD
Wind indicator: no
Segmented circle: no
Beacon: unknown

Nearby radio navigation aids

VOR radial/distance  VOR name  Freq  Var
STVr080/14.1STONEWALL VORTAC113.8008E
SATr354/34.4SAN ANTONIO VORTAC116.8008E
LLOr144/39.3LLANO VORTAC108.2008E

 
NDB name  Hdg/Dist  Freq  Var  ID
HORSESHOE BAY RESORT185/18.840307EMFS -- ..-. ...
BURNET191/33.034107EBMQ -... -- --.-
NEW BRAUNFELS318/37.021208EBAZ -... .- --..

Airport Services

Airframe service: NONE
Powerplant service: NONE

Runway Information

Runway N/S

Dimensions: 1700 x 60 ft. / 518 x 18 m
Surface: dirt
RUNWAY N  RUNWAY S
Traffic pattern: leftleft

Airport Ownership and Management from official FAA records

Ownership: Privately-owned
Owner: J. DAVID BAMBERGER
3539 OAKGATE DRIVE SUITE 150
SAN ANTONIO, TX 78230
Phone 512-868-7294

Additional Remarks

(ARPT STATUS) ARPT CLSD PERMLY.
 
Loc | Ops | Rwys | Biz | Links
Com | Nav | Svcs | Stats | Notes
 
Area around 48T (Bamberger Ranch Airport)
 
No photo
 
Sunrise and sunset
Times for 17-May-2003
 Local
(UTC-5)
 Zulu
(UTC)
Morning civil twilight06:1311:13
Sunrise06:4011:40
Sunset20:2101:21
Evening civil twilight20:4701:47
 
METAR
KT82 180125Z AUTO 05003KT 10SM CLR 30/08 A2995 RMK AO1
KBMQ 180053Z AUTO 04006KT 9SM CLR 29/11 A2992 RMK AO2 SLPNO T02940106
KHYI 180135Z AUTO 07006KT 10SM CLR 26/13 A2988 RMK AO1
KBAZ 180051Z AUTO 06007KT 10SM CLR 31/14 A2984 RMK AO2 SLP097 T03110139 $
KERV 180125Z AUTO 04004KT 10SM CLR 28/07 A2992 RMK AO2
KAUS 180053Z 05007KT 10SM CLR 29/16 A2985
KATT 180051Z AUTO 03005KT 10SM CLR 31/11 A2986 RMK AO2 SLP098 T03060111
KSAT 180053Z 07006KT 10SM CLR 32/13 A2986
KRND 172255Z 06009KT 7SM SKC 35/10 A2985 RMK WND DATA ESTMD SLPNO
KGTU 180135Z AUTO 03003KT 10SM CLR 28/12 A2987 RMK AO1

Businesses, Services and Facilities On or Near Bamberger Ranch Airport

Business NameContactServicesComments
Add a business

Other Pages about Bamberger Ranch Airport

Add a link
 
Copyright © AirNav, LLC. All rights reserved. Privacy Policy  Contact